Time;durP1;ratioP1;P1;durP2;ratioP2;P2;SDS_P1;SDS_P2;PMS_P1;PMS_P2;Temp;Humidity;BMP_temperature;BMP_pressure;BME280_temperature;BME280_humidity;BME280_pressure;Samples;Min_cycle;Max_cycle;Signal;HPM_P1;HPM_P2
2022/04/16 08:57:49;;;;;;;4.68;1.67;;;24.50;52.50;;;;;;5126253;27;20332;-45
2022/04/16 09:00:15;;;;;;;2.97;1.52;;;24.30;56.50;;;;;;5126272;28;20473;-45
2022/04/16 09:02:56;;;;;;;3.92;1.00;;;25.00;54.60;;;;;;5126440;28;20039;-46
2022/04/16 09:05:26;;;;;;;4.65;1.60;;;25.20;48.40;;;;;;5126858;27;20120;-44
2022/04/16 09:07:55;;;;;;;2.58;1.17;;;25.30;49.60;;;;;;5126962;27;20039;-46
2022/04/16 09:10:21;;;;;;;2.03;0.80;;;25.00;48.10;;;;;;5126577;27;20038;-45
2022/04/16 09:12:52;;;;;;;1.70;0.75;;;24.80;46.70;;;;;;5126662;27;20050;-46
2022/04/16 09:15:18;;;;;;;2.92;0.90;;;24.30;46.30;;;;;;5126296;27;20469;-46
2022/04/16 09:17:59;;;;;;;3.40;0.88;;;24.40;47.50;;;;;;5126666;27;20117;-48
2022/04/16 09:20:31;;;;;;;1.52;0.45;;;24.30;45.00;;;;;;5126483;27;20118;-46
2022/04/16 09:22:56;;;;;;;2.10;0.40;;;24.40;45.80;;;;;;5126016;27;20047;-46
2022/04/16 09:25:22;;;;;;;2.28;0.65;;;23.90;46.20;;;;;;5126259;28;20062;-45
2022/04/16 09:27:50;;;;;;;2.13;0.45;;;23.80;44.50;;;;;;5125978;28;20054;-48
2022/04/16 09:30:31;;;;;;;1.95;0.55;;;23.50;43.50;;;;;;5126061;27;20043;-45
2022/04/16 09:32:58;;;;;;;1.63;0.30;;;23.10;41.80;;;;;;5126082;27;20051;-45
2022/04/16 09:35:39;;;;;;;2.50;0.40;;;23.10;44.50;;;;;;5124141;28;20043;-45
2022/04/16 09:38:08;;;;;;;1.02;0.30;;;24.00;43.90;;;;;;5125785;27;20500;-47
2022/04/16 09:40:36;;;;;;;1.17;0.30;;;24.20;42.10;;;;;;5125874;27;20042;-46
2022/04/16 09:43:05;;;;;;;0.75;0.20;;;23.70;41.70;;;;;;5125191;27;20496;-48
2022/04/16 09:45:31;;;;;;;1.25;0.30;;;23.50;41.30;;;;;;5126326;27;20043;-47
2022/04/16 09:47:58;;;;;;;1.10;0.30;;;23.40;41.30;;;;;;5125610;27;20884;-45
2022/04/16 09:50:32;;;;;;;2.95;0.43;;;23.40;43.40;;;;;;5125680;27;20054;-45
2022/04/16 09:53:02;;;;;;;0.88;0.30;;;23.40;40.60;;;;;;5125523;27;20792;-45
2022/04/16 09:55:29;;;;;;;1.80;0.25;;;23.00;42.00;;;;;;5125306;27;20043;-46
2022/04/16 09:57:55;;;;;;;1.10;0.30;;;22.60;42.10;;;;;;5126039;27;20075;-47
2022/04/16 10:00:21;;;;;;;2.80;0.57;;;22.50;42.70;;;;;;5125482;27;20074;-44
2022/04/16 10:02:48;;;;;;;2.15;0.40;;;22.30;43.60;;;;;;5125820;27;20039;-47
2022/04/16 10:05:14;;;;;;;0.70;0.20;;;22.30;42.70;;;;;;5125342;27;20445;-47
2022/04/16 10:07:43;;;;;;;2.05;0.30;;;22.10;43.00;;;;;;5120770;27;20043;-46
2022/04/16 10:10:17;;;;;;;1.67;0.35;;;22.10;42.90;;;;;;5111772;28;20071;-44
2022/04/16 10:13:04;;;;;;;0.95;0.30;;;21.90;42.50;;;;;;5111633;28;20047;-45
2022/04/16 10:15:54;;;;;;;0.63;0.20;;;21.80;41.80;;;;;;5111731;28;20035;-46
2022/04/16 10:18:20;;;;;;;2.22;0.20;;;21.50;41.60;;;;;;5109935;28;20530;-45
2022/04/16 10:20:51;;;;;;;1.05;0.10;;;21.70;42.70;;;;;;5111502;28;20051;-46
2022/04/16 10:23:25;;;;;;;2.75;0.20;;;22.00;42.60;;;;;;5109737;28;20046;-46
2022/04/16 10:25:51;;;;;;;2.00;0.35;;;21.90;40.70;;;;;;5111073;28;20612;-45
2022/04/16 10:28:23;;;;;;;1.23;0.25;;;21.50;41.30;;;;;;5111191;28;20118;-46
2022/04/16 10:30:55;;;;;;;;;;;21.20;43.60;;;;;;5111847;28;20122;-45
2022/04/16 10:33:22;;;;;;;5.10;0.75;;;21.00;42.10;;;;;;5110529;28;20274;-48
2022/04/16 10:36:10;;;;;;;0.60;0.13;;;20.30;53.00;;;;;;5111168;28;20115;-44
2022/04/16 10:38:38;;;;;;;1.70;0.40;;;20.40;45.40;;;;;;5111168;28;20059;-46
2022/04/16 10:41:17;;;;;;;2.35;0.20;;;21.00;42.30;;;;;;5110884;27;20047;-44
2022/04/16 10:43:59;;;;;;;3.20;0.85;;;21.10;43.40;;;;;;5111108;28;20051;-47
2022/04/16 10:46:48;;;;;;;2.58;0.30;;;19.90;41.10;;;;;;5110841;28;20241;-45
2022/04/16 10:49:16;;;;;;;0.90;0.10;;;19.60;41.00;;;;;;5110694;28;20114;-46
2022/04/16 10:51:42;;;;;;;1.33;0.52;;;17.70;41.90;;;;;;5110699;28;20040;-45
2022/04/16 10:54:24;;;;;;;0.90;0.17;;;16.30;44.20;;;;;;5110650;28;20051;-46
2022/04/16 10:56:54;;;;;;;1.98;0.30;;;15.50;47.40;;;;;;5110722;28;20118;-47
2022/04/16 10:59:41;;;;;;;3.10;0.32;;;14.60;48.50;;;;;;5109861;28;20047;-44
2022/04/16 11:02:25;;;;;;;1.27;0.10;;;14.10;49.90;;;;;;5110536;28;20436;-44
2022/04/16 11:04:59;;;;;;;0.52;0.20;;;13.60;52.70;;;;;;5110645;28;20101;-44
2022/04/16 11:07:26;;;;;;;3.20;0.30;;;13.40;52.60;;;;;;5110333;28;20051;-44
2022/04/16 11:09:52;;;;;;;1.25;0.20;;;13.60;52.70;;;;;;5110684;28;20392;-45
2022/04/16 11:12:22;;;;;;;1.00;0.20;;;13.50;53.30;;;;;;5110405;28;20039;-45
2022/04/16 11:14:56;;;;;;;2.20;0.47;;;13.00;53.60;;;;;;5110422;28;20047;-48
2022/04/16 11:17:24;;;;;;;1.20;0.40;;;13.10;54.20;;;;;;5110453;28;20393;-45
2022/04/16 11:19:58;;;;;;;2.13;0.30;;;13.00;54.90;;;;;;5109381;28;20035;-46
2022/04/16 11:22:25;;;;;;;0.60;0.20;;;13.10;54.60;;;;;;5110440;28;20071;-47
2022/04/16 11:24:51;;;;;;;1.10;0.50;;;13.00;55.00;;;;;;5110359;28;20568;-46
2022/04/16 11:36:04;;;;;;;1.73;0.30;;;12.80;53.90;;;;;;5110165;28;20443;-47
2022/04/16 11:38:32;;;;;;;1.63;0.30;;;13.00;54.70;;;;;;5110251;28;20041;-44
2022/04/16 11:41:04;;;;;;;1.42;0.20;;;13.00;58.60;;;;;;5109865;28;20047;-48
2022/04/16 11:43:31;;;;;;;1.63;0.40;;;12.70;56.00;;;;;;5110128;28;20040;-44
2022/04/16 11:45:58;;;;;;;1.42;0.20;;;13.20;55.40;;;;;;5110423;28;20127;-45
2022/04/16 11:48:24;;;;;;;2.25;0.25;;;13.20;56.10;;;;;;5110379;28;20104;-45
2022/04/16 11:50:51;;;;;;;1.67;0.40;;;12.90;55.90;;;;;;5110153;28;20051;-45
2022/04/16 11:53:17;;;;;;;2.92;0.60;;;12.80;55.30;;;;;;5110005;28;20569;-46
2022/04/16 11:55:46;;;;;;;1.40;0.30;;;12.70;55.40;;;;;;5109817;28;20112;-43
2022/04/16 11:58:12;;;;;;;2.88;0.40;;;12.80;56.80;;;;;;5110268;28;20109;-45
2022/04/16 12:00:48;;;;;;;1.30;0.20;;;13.20;56.10;;;;;;5109436;28;20636;-44
2022/04/16 12:03:14;;;;;;;2.42;0.50;;;13.00;56.60;;;;;;5110589;28;20071;-44
2022/04/16 12:05:44;;;;;;;0.63;0.20;;;12.90;53.90;;;;;;5110584;28;20112;-45
2022/04/16 12:08:11;;;;;;;3.70;0.57;;;12.80;54.40;;;;;;5109910;28;20047;-47
2022/04/16 12:10:43;;;;;;;1.50;0.20;;;13.00;53.80;;;;;;5109608;28;20042;-44
2022/04/16 12:13:10;;;;;;;0.90;0.15;;;12.90;53.60;;;;;;5109941;28;20035;-45
2022/04/16 12:15:41;;;;;;;0.80;0.30;;;12.90;53.70;;;;;;5109050;28;20184;-49
2022/04/16 12:18:24;;;;;;;2.08;0.28;;;13.00;53.60;;;;;;5109621;28;20081;-47
2022/04/16 12:20:50;;;;;;;2.42;0.45;;;13.00;52.50;;;;;;5109035;28;20039;-44
2022/04/16 12:23:20;;;;;;;1.70;0.40;;;13.00;53.70;;;;;;5109225;28;20040;-45
2022/04/16 12:25:47;;;;;;;2.75;0.35;;;13.20;54.60;;;;;;5109028;28;20051;-45
2022/04/16 12:28:14;;;;;;;4.00;0.47;;;13.30;54.00;;;;;;5109266;28;20086;-45
2022/04/16 12:30:47;;;;;;;2.03;0.32;;;13.40;54.40;;;;;;5108874;28;20042;-44
2022/04/16 12:33:13;;;;;;;1.40;0.30;;;13.30;56.00;;;;;;5109223;28;20050;-45
2022/04/16 12:35:40;;;;;;;0.82;0.10;;;13.40;56.30;;;;;;5109196;28;20035;-47
2022/04/16 12:38:07;;;;;;;0.70;0.20;;;13.30;56.10;;;;;;5109263;28;20108;-46
2022/04/16 12:40:34;;;;;;;0.60;0.20;;;13.50;55.30;;;;;;5108717;28;20633;-46
2022/04/16 12:43:01;;;;;;;1.13;0.20;;;13.30;55.30;;;;;;5109030;28;20031;-45
2022/04/16 12:45:30;;;;;;;2.88;0.20;;;13.70;54.20;;;;;;5108713;28;20085;-47
2022/04/16 12:47:56;;;;;;;3.28;0.38;;;13.30;53.50;;;;;;5108739;28;20071;-44
2022/04/16 12:50:22;;;;;;;2.05;0.30;;;13.30;53.10;;;;;;5108372;28;20099;-44
2022/04/16 12:52:48;;;;;;;4.05;0.60;;;13.30;53.70;;;;;;5108592;28;20393;-45
2022/04/16 12:55:14;;;;;;;2.03;0.30;;;13.60;54.10;;;;;;5107507;28;20052;-45
2022/04/16 12:57:40;;;;;;;3.22;1.00;;;13.20;54.00;;;;;;5108178;28;20066;-46
2022/04/16 13:00:11;;;;;;;1.13;0.20;;;13.50;54.00;;;;;;5108455;28;20917;-45
2022/04/16 13:02:40;;;;;;;3.60;0.37;;;13.30;53.40;;;;;;5108886;28;20075;-44
2022/04/16 13:05:10;;;;;;;1.10;0.20;;;13.30;54.90;;;;;;5109116;28;20269;-45
2022/04/16 13:07:36;;;;;;;0.82;0.20;;;13.40;55.50;;;;;;5108603;28;20048;-46
2022/04/16 13:10:03;;;;;;;0.98;0.20;;;13.40;55.80;;;;;;5108798;28;20051;-44
2022/04/16 13:12:29;;;;;;;0.50;0.17;;;13.50;55.30;;;;;;5108612;28;20063;-49
2022/04/16 13:14:55;;;;;;;1.63;0.15;;;13.90;54.70;;;;;;5108641;28;20489;-46
2022/04/16 13:17:20;;;;;;;1.30;0.20;;;13.60;53.90;;;;;;5108888;28;20043;-46
2022/04/16 13:19:47;;;;;;;1.42;0.47;;;13.60;55.20;;;;;;5108753;28;20070;-46
2022/04/16 13:22:12;;;;;;;2.05;0.20;;;13.60;55.90;;;;;;5108693;28;20191;-44
2022/04/16 13:24:38;;;;;;;2.17;0.20;;;13.70;55.80;;;;;;5108462;28;20062;-46
2022/04/16 13:27:07;;;;;;;1.80;0.20;;;13.90;54.80;;;;;;5108446;28;20500;-44
2022/04/16 13:29:34;;;;;;;2.13;0.57;;;13.80;53.50;;;;;;5108267;28;20100;-47
2022/04/16 13:32:01;;;;;;;1.90;0.30;;;13.80;53.20;;;;;;5108501;28;20374;-45
2022/04/16 13:34:26;;;;;;;1.65;0.20;;;13.90;53.60;;;;;;5108693;28;20095;-45
2022/04/16 13:36:52;;;;;;;0.93;0.10;;;13.80;53.20;;;;;;5108415;28;20127;-49
2022/04/16 13:42:03;;;;;;;1.15;0.20;;;13.90;52.80;;;;;;5108380;28;20039;-45
2022/04/16 13:44:29;;;;;;;1.42;0.20;;;13.80;54.20;;;;;;5111971;28;20092;-46
2022/04/16 13:46:54;;;;;;;1.90;0.20;;;13.90;54.00;;;;;;5112457;28;20055;-44
2022/04/16 13:49:20;;;;;;;0.85;0.30;;;13.90;55.00;;;;;;5112606;28;20088;-46
2022/04/16 13:51:46;;;;;;;1.13;0.20;;;13.90;54.20;;;;;;5111752;27;20044;-45
2022/04/16 13:54:11;;;;;;;2.00;0.30;;;14.00;54.30;;;;;;5111854;28;20100;-44
2022/04/16 13:56:40;;;;;;;3.20;0.35;;;14.00;54.10;;;;;;5111188;28;20169;-48
2022/04/16 13:59:09;;;;;;;1.42;0.40;;;13.90;53.60;;;;;;5111584;28;20489;-45
2022/04/16 14:01:35;;;;;;;1.45;0.22;;;14.00;54.70;;;;;;5111739;28;20042;-44
2022/04/16 14:04:02;;;;;;;1.23;0.30;;;14.00;55.00;;;;;;5111672;28;20386;-44
2022/04/16 14:06:29;;;;;;;0.90;0.20;;;14.00;55.10;;;;;;5111784;28;20051;-45
2022/04/16 14:08:56;;;;;;;1.65;0.25;;;14.00;55.20;;;;;;5111517;28;20088;-47
2022/04/16 14:11:22;;;;;;;1.45;0.30;;;14.00;55.80;;;;;;5111797;28;20046;-45
2022/04/16 14:13:48;;;;;;;0.82;0.20;;;14.10;54.30;;;;;;5111517;27;20066;-45
2022/04/16 14:16:14;;;;;;;3.58;0.20;;;14.10;53.50;;;;;;5110424;28;20477;-45
2022/04/16 14:18:40;;;;;;;1.75;0.20;;;14.00;53.40;;;;;;5111671;28;20039;-44
2022/04/16 14:21:10;;;;;;;1.00;0.30;;;14.10;53.70;;;;;;5111531;28;20043;-45
2022/04/16 14:23:37;;;;;;;3.08;0.38;;;14.00;54.10;;;;;;5111463;28;20043;-47
2022/04/16 14:26:04;;;;;;;2.38;0.20;;;14.10;54.20;;;;;;5111224;27;20047;-46
2022/04/16 14:28:32;;;;;;;0.93;0.20;;;14.00;54.00;;;;;;5111277;28;20043;-48
2022/04/16 14:30:58;;;;;;;1.08;0.30;;;14.00;54.00;;;;;;5111372;28;20039;-44
2022/04/16 14:33:23;;;;;;;1.80;0.43;;;14.00;54.10;;;;;;5111435;27;20047;-48
2022/04/16 14:35:49;;;;;;;1.88;0.30;;;14.00;54.80;;;;;;5110805;28;20039;-46
2022/04/16 14:38:16;;;;;;;2.47;0.40;;;13.90;54.20;;;;;;5111142;27;20032;-44
2022/04/16 14:40:42;;;;;;;3.47;0.85;;;13.90;53.50;;;;;;5110728;28;20482;-48
2022/04/16 14:43:11;;;;;;;2.40;0.40;;;13.80;53.20;;;;;;5111203;28;20031;-47
2022/04/16 14:45:39;;;;;;;1.40;0.47;;;13.80;53.00;;;;;;5111230;28;20127;-49
2022/04/16 14:48:06;;;;;;;1.58;0.40;;;13.80;52.50;;;;;;5111107;28;20172;-45
2022/04/16 14:50:32;;;;;;;2.55;0.45;;;13.70;53.20;;;;;;5111281;28;20056;-46
2022/04/16 14:52:58;;;;;;;1.83;0.20;;;13.90;53.30;;;;;;5111115;28;20037;-48
2022/04/16 14:55:23;;;;;;;1.02;0.50;;;14.00;53.70;;;;;;5110782;28;20031;-44
2022/04/16 14:57:49;;;;;;;4.30;0.30;;;13.70;54.40;;;;;;5110840;28;20125;-45
2022/04/16 15:00:15;;;;;;;2.78;0.50;;;13.70;53.70;;;;;;5110639;28;20043;-44
2022/04/16 15:02:41;;;;;;;3.60;0.85;;;13.70;53.50;;;;;;5108811;28;20050;-44
2022/04/16 15:05:08;;;;;;;2.05;0.35;;;13.70;53.50;;;;;;5110905;28;20047;-45
2022/04/16 15:07:34;;;;;;;1.38;0.30;;;13.70;53.80;;;;;;5111306;28;20120;-48
2022/04/16 15:09:59;;;;;;;2.40;0.40;;;13.90;54.00;;;;;;5110972;28;20079;-45
2022/04/16 15:12:26;;;;;;;1.75;0.40;;;13.50;54.30;;;;;;5111294;28;20759;-44
2022/04/16 15:14:52;;;;;;;2.08;0.40;;;13.60;54.60;;;;;;5110489;28;20036;-44
2022/04/16 15:17:24;;;;;;;1.25;0.32;;;13.50;54.80;;;;;;5110600;28;20043;-44
2022/04/16 15:19:50;;;;;;;2.13;0.35;;;13.40;54.20;;;;;;5110204;28;20168;-44
2022/04/16 15:22:17;;;;;;;2.33;0.50;;;13.50;54.20;;;;;;5109093;28;20126;-45
2022/04/16 15:24:43;;;;;;;1.80;0.40;;;13.40;53.30;;;;;;5109930;28;20047;-44
2022/04/16 15:27:09;;;;;;;2.67;0.30;;;13.40;52.80;;;;;;5109377;28;20058;-44
2022/04/16 15:29:34;;;;;;;4.22;0.35;;;13.30;53.40;;;;;;5110369;28;20043;-47
2022/04/16 15:32:00;;;;;;;1.08;0.20;;;13.30;53.50;;;;;;5110384;28;20436;-43
2022/04/16 15:34:26;;;;;;;3.33;0.30;;;13.30;53.30;;;;;;5110198;28;20130;-44
2022/04/16 15:36:52;;;;;;;3.00;0.77;;;13.30;53.90;;;;;;5109890;28;20047;-45
2022/04/16 15:39:18;;;;;;;3.25;1.10;;;13.30;54.30;;;;;;5110461;27;20036;-46
2022/04/16 15:41:43;;;;;;;1.40;0.43;;;13.30;55.20;;;;;;5109879;28;20459;-44
2022/04/16 15:44:09;;;;;;;1.55;0.43;;;13.30;54.60;;;;;;5110056;28;20047;-45
2022/04/16 15:46:40;;;;;;;2.63;0.73;;;13.50;55.50;;;;;;5110130;28;20561;-44
2022/04/16 15:49:05;;;;;;;1.90;0.52;;;13.20;54.90;;;;;;5109808;28;20039;-44
2022/04/16 15:51:32;;;;;;;1.48;0.50;;;13.20;55.00;;;;;;5110229;28;20484;-45
2022/04/16 15:53:57;;;;;;;2.78;0.40;;;13.30;55.20;;;;;;5109562;28;20104;-45
2022/04/16 15:56:23;;;;;;;5.88;0.30;;;13.10;55.70;;;;;;5109486;28;20047;-45
2022/04/16 15:58:49;;;;;;;2.25;0.57;;;13.20;56.20;;;;;;5109065;28;20043;-45
2022/04/16 16:01:15;;;;;;;2.88;0.57;;;13.30;56.90;;;;;;5111502;28;20097;-43
2022/04/16 16:03:41;;;;;;;1.45;0.40;;;13.00;55.30;;;;;;5111507;28;20047;-44
2022/04/16 16:06:07;;;;;;;2.33;0.52;;;13.20;55.70;;;;;;5110204;28;20096;-45
2022/04/16 16:08:34;;;;;;;1.70;0.40;;;12.80;55.30;;;;;;5110116;28;20049;-44
2022/04/16 16:11:00;;;;;;;4.68;0.52;;;12.80;55.70;;;;;;5110259;28;20431;-45
2022/04/16 16:13:28;;;;;;;2.35;0.73;;;13.30;56.20;;;;;;5109962;28;20401;-45
2022/04/16 16:15:54;;;;;;;2.97;0.43;;;12.70;55.60;;;;;;5109587;28;20051;-45
2022/04/16 16:18:20;;;;;;;2.38;0.55;;;13.00;56.20;;;;;;5110116;28;20049;-46
2022/04/16 16:20:46;;;;;;;4.55;0.50;;;12.60;56.60;;;;;;5109970;28;20680;-46
2022/04/16 16:23:13;;;;;;;3.30;0.50;;;12.50;57.60;;;;;;5109471;28;20040;-44
2022/04/16 16:25:38;;;;;;;2.25;0.60;;;12.60;57.50;;;;;;5109983;28;20074;-45
2022/04/16 16:28:05;;;;;;;1.33;0.40;;;12.50;57.50;;;;;;5109450;28;20071;-45
2022/04/16 16:30:32;;;;;;;3.85;0.88;;;12.50;57.70;;;;;;5109935;28;20098;-45
2022/04/16 16:32:59;;;;;;;2.20;0.60;;;12.40;57.70;;;;;;5109747;28;20370;-46
2022/04/16 16:35:25;;;;;;;1.08;0.50;;;12.50;58.00;;;;;;5108407;28;20521;-45
2022/04/16 16:37:51;;;;;;;1.90;0.52;;;12.50;58.90;;;;;;5109544;28;20082;-46
2022/04/16 16:40:18;;;;;;;2.17;0.55;;;12.30;57.70;;;;;;5109276;28;20115;-44
2022/04/16 16:42:44;;;;;;;2.58;0.40;;;12.90;58.40;;;;;;5109929;28;20039;-49
2022/04/16 16:45:10;;;;;;;2.42;0.70;;;12.20;58.10;;;;;;5108438;28;20043;-50
2022/04/16 16:47:36;;;;;;;3.13;0.38;;;12.20;58.70;;;;;;5109071;28;20085;-48
2022/04/16 16:50:05;;;;;;;3.38;0.40;;;12.10;58.90;;;;;;5108491;28;20071;-47
2022/04/16 16:52:33;;;;;;;1.83;0.65;;;12.00;58.20;;;;;;5107858;28;20542;-51
2022/04/16 16:54:58;;;;;;;2.42;0.40;;;12.10;58.10;;;;;;5106201;28;20470;-50
2022/04/16 16:57:24;;;;;;;2.15;0.60;;;12.00;58.30;;;;;;5107365;28;20144;-47
2022/04/16 16:59:50;;;;;;;2.25;0.40;;;11.80;58.20;;;;;;5106533;28;20044;-47
2022/04/16 17:05:06;;;;;;;2.67;0.70;;;11.80;57.70;;;;;;5105473;28;20071;-48
2022/04/16 17:07:36;;;;;;;4.28;0.60;;;11.80;57.80;;;;;;5105631;28;20146;-48
2022/04/16 17:10:07;;;;;;;2.50;0.43;;;11.80;57.40;;;;;;5106857;28;20122;-47
2022/04/16 17:12:37;;;;;;;1.42;0.40;;;11.80;57.00;;;;;;5106798;28;20047;-47
2022/04/16 17:20:32;;;;;;;3.97;0.50;;;11.70;57.00;;;;;;5110576;28;20051;-48
2022/04/16 17:22:58;;;;;;;2.28;0.30;;;11.50;57.20;;;;;;5110897;28;20086;-51
2022/04/16 17:25:24;;;;;;;3.05;0.60;;;11.50;57.50;;;;;;5110658;27;20070;-49
2022/04/16 17:27:50;;;;;;;2.03;0.47;;;12.30;57.90;;;;;;5110675;28;20042;-48
2022/04/16 17:30:20;;;;;;;4.65;0.40;;;12.10;57.40;;;;;;5110442;28;20046;-51
2022/04/16 17:32:47;;;;;;;1.55;0.63;;;12.10;57.50;;;;;;5110782;28;20039;-41
2022/04/16 17:35:13;;;;;;;1.92;0.60;;;11.40;57.80;;;;;;5110121;28;20089;-41
2022/04/16 17:37:44;;;;;;;1.67;0.70;;;11.20;57.80;;;;;;5111037;28;20157;-55
2022/04/16 17:40:10;;;;;;;2.33;0.50;;;11.20;58.20;;;;;;5110921;28;20048;-51
2022/04/16 17:42:36;;;;;;;1.02;0.20;;;11.20;58.10;;;;;;5111959;28;20027;-44
2022/04/16 17:45:04;;;;;;;1.92;0.68;;;11.10;58.30;;;;;;5110558;28;20044;-51
2022/04/16 17:47:29;;;;;;;1.38;0.30;;;11.00;58.70;;;;;;5110701;28;20096;-51
2022/04/16 17:49:55;;;;;;;3.28;0.50;;;11.00;58.50;;;;;;5110248;28;20481;-50
2022/04/16 17:52:21;;;;;;;1.20;0.40;;;11.00;58.70;;;;;;5110193;28;20043;-53
2022/04/16 17:54:47;;;;;;;0.90;0.35;;;11.00;58.90;;;;;;5093290;28;20082;-52
2022/04/16 17:57:13;;;;;;;2.25;0.30;;;11.00;59.70;;;;;;5110003;28;20056;-52
2022/04/16 17:59:39;;;;;;;1.48;0.40;;;10.80;60.20;;;;;;5110960;28;20052;-52
2022/04/16 18:02:09;;;;;;;1.35;0.32;;;10.80;60.60;;;;;;5110384;28;20054;-52
2022/04/16 18:04:36;;;;;;;2.38;0.50;;;10.60;60.70;;;;;;5110102;28;20039;-51
2022/04/16 18:07:03;;;;;;;1.27;0.30;;;10.60;61.40;;;;;;5110292;28;20042;-52
2022/04/16 18:09:29;;;;;;;1.52;0.50;;;10.40;62.00;;;;;;5108898;28;20074;-52
2022/04/16 18:11:55;;;;;;;1.60;0.32;;;10.70;63.20;;;;;;5110090;28;20071;-51
2022/04/16 18:14:21;;;;;;;2.13;0.98;;;10.10;63.90;;;;;;5109909;28;20140;-53
2022/04/16 18:16:48;;;;;;;2.17;0.50;;;10.00;64.00;;;;;;5110445;28;20119;-50
2022/04/16 18:19:20;;;;;;;2.20;0.70;;;10.10;64.10;;;;;;5111590;28;20079;-52
2022/04/16 18:21:53;;;;;;;1.73;0.50;;;9.90;64.10;;;;;;5091356;28;20132;-54
2022/04/16 18:24:22;;;;;;;1.80;0.50;;;9.70;64.30;;;;;;5108134;28;20040;-52
2022/04/16 18:26:51;;;;;;;4.07;0.50;;;9.80;64.70;;;;;;5075487;28;20044;-53
2022/04/16 18:29:18;;;;;;;2.05;0.57;;;9.50;65.20;;;;;;5109052;27;20465;-51
2022/04/16 18:31:45;;;;;;;1.95;0.47;;;9.70;66.20;;;;;;5109746;28;20393;-53
2022/04/16 18:34:12;;;;;;;2.15;0.50;;;9.30;68.00;;;;;;5109058;28;20051;-51
2022/04/16 18:36:39;;;;;;;2.85;0.60;;;9.10;67.50;;;;;;5109236;28;20048;-52
2022/04/16 18:39:05;;;;;;;1.98;0.68;;;9.00;68.00;;;;;;5109055;28;20046;-51
2022/04/16 18:41:37;;;;;;;2.88;0.60;;;8.80;82.60;;;;;;5109243;28;20048;-52
2022/04/16 18:44:03;;;;;;;6.75;0.47;;;8.80;83.10;;;;;;5109564;28;20405;-50
2022/04/16 18:46:29;;;;;;;3.22;0.80;;;8.50;71.30;;;;;;5108720;28;20638;-50
2022/04/16 18:48:55;;;;;;;1.95;0.65;;;8.30;71.90;;;;;;5109241;28;20051;-49
2022/04/16 18:51:22;;;;;;;2.20;0.47;;;8.20;72.30;;;;;;5107135;28;20059;-50
2022/04/16 18:53:48;;;;;;;4.00;0.90;;;8.10;72.90;;;;;;5108784;28;20122;-50
2022/04/16 18:56:15;;;;;;;2.35;0.90;;;7.90;73.50;;;;;;5107102;28;20059;-49
2022/04/16 18:58:43;;;;;;;4.75;1.20;;;7.80;77.80;;;;;;5109078;28;20047;-48
2022/04/16 19:06:55;;;;;;;7.53;3.97;;;7.50;77.80;;;;;;5108512;28;20091;-48
2022/04/16 19:09:26;;;;;;;6.72;4.75;;;7.20;78.40;;;;;;5108321;28;20055;-48
2022/04/16 19:11:54;;;;;;;8.25;4.85;;;6.30;79.60;;;;;;5108463;28;20046;-51
2022/04/16 19:14:21;;;;;;;5.20;2.60;;;7.00;80.40;;;;;;5108561;28;20047;-49
2022/04/16 19:16:47;;;;;;;6.43;2.00;;;6.80;80.80;;;;;;5107645;28;20539;-48
2022/04/16 19:19:20;;;;;;;3.58;1.75;;;6.80;81.70;;;;;;5108598;28;20591;-50
2022/04/16 19:21:46;;;;;;;2.67;1.30;;;6.70;82.90;;;;;;5108940;28;20156;-50
2022/04/16 19:24:12;;;;;;;2.35;0.93;;;6.60;82.80;;;;;;5108430;28;20118;-49
2022/04/16 19:26:39;;;;;;;3.42;0.88;;;6.60;83.20;;;;;;5107860;28;20051;-48
2022/04/16 19:29:05;;;;;;;2.67;1.15;;;6.50;83.90;;;;;;5108794;28;20066;-52
2022/04/16 19:31:31;;;;;;;4.75;1.25;;;6.40;84.30;;;;;;5108127;28;20389;-50
2022/04/16 19:33:57;;;;;;;2.67;1.00;;;6.40;85.30;;;;;;5107836;28;20051;-46
2022/04/16 19:36:23;;;;;;;3.28;1.02;;;6.40;84.90;;;;;;5107817;28;20050;-48
2022/04/16 19:38:50;;;;;;;3.97;1.33;;;6.40;85.10;;;;;;5108407;28;20079;-48
2022/04/16 19:41:16;;;;;;;2.38;0.77;;;6.40;85.40;;;;;;5107045;28;20485;-49
2022/04/16 19:43:42;;;;;;;4.18;1.00;;;6.40;85.60;;;;;;5107332;28;20093;-48
2022/04/16 19:46:08;;;;;;;2.33;0.80;;;6.40;85.50;;;;;;5107843;28;20411;-51
2022/04/16 19:48:33;;;;;;;2.25;0.82;;;6.40;85.80;;;;;;5107868;28;20058;-49
2022/04/16 19:51:00;;;;;;;3.40;0.75;;;6.30;85.80;;;;;;5108511;28;20090;-49
2022/04/16 19:53:27;;;;;;;2.15;0.65;;;6.30;86.30;;;;;;5107005;28;20281;-49
2022/04/16 19:55:53;;;;;;;1.48;0.80;;;6.30;86.40;;;;;;5106727;28;20458;-47
2022/04/16 19:58:20;;;;;;;1.55;0.70;;;6.30;86.90;;;;;;5106773;28;20058;-47
2022/04/16 20:00:46;;;;;;;1.80;0.68;;;6.20;86.60;;;;;;5107663;28;20402;-48
2022/04/16 20:03:12;;;;;;;2.83;1.52;;;6.10;86.20;;;;;;5107484;28;20766;-51
2022/04/16 20:05:38;;;;;;;2.58;1.00;;;6.10;86.60;;;;;;5105998;28;20374;-47
2022/04/16 20:10:54;;;;;;;3.60;1.02;;;6.00;86.70;;;;;;5107405;28;20055;-47
2022/04/16 20:13:24;;;;;;;1.80;0.65;;;6.10;86.70;;;;;;5107598;28;20055;-48
2022/04/16 20:15:53;;;;;;;1.90;0.85;;;6.00;86.10;;;;;;5106996;28;20386;-51
2022/04/16 20:18:22;;;;;;;2.95;1.08;;;6.10;85.90;;;;;;5106596;28;20061;-47
2022/04/16 20:20:48;;;;;;;2.90;1.15;;;6.00;87.00;;;;;;5107005;28;20039;-48
2022/04/16 20:23:14;;;;;;;3.17;0.95;;;6.00;85.50;;;;;;5107538;28;20036;-50
2022/04/16 20:25:42;;;;;;;3.78;1.13;;;5.90;85.80;;;;;;5107169;28;20333;-48
2022/04/16 20:28:09;;;;;;;3.15;1.20;;;5.90;85.00;;;;;;5107547;27;20570;-49
2022/04/16 20:30:36;;;;;;;2.97;1.42;;;5.80;84.50;;;;;;5105717;28;20049;-49
2022/04/16 20:33:01;;;;;;;2.60;1.25;;;6.20;84.00;;;;;;5106179;28;20055;-47
2022/04/16 20:35:30;;;;;;;5.15;1.23;;;6.50;83.60;;;;;;5107113;28;20055;-48
2022/04/16 20:37:56;;;;;;;4.60;1.02;;;5.90;83.00;;;;;;5107396;28;20040;-48
2022/04/16 20:45:55;;;;;;;4.38;1.42;;;5.90;82.50;;;;;;5107743;28;20262;-47
2022/04/16 20:48:24;;;;;;;4.68;1.25;;;5.70;82.50;;;;;;5106643;28;20632;-49
2022/04/16 20:53:34;;;;;;;2.50;0.90;;;5.70;83.10;;;;;;5107115;28;20050;-51
2022/04/16 20:56:01;;;;;;;2.92;1.50;;;5.80;83.00;;;;;;5107327;28;20036;-50
2022/04/16 20:58:28;;;;;;;3.80;1.45;;;5.80;83.10;;;;;;5106957;28;20124;-47
2022/04/16 21:00:54;;;;;;;4.35;1.35;;;5.80;83.00;;;;;;5107210;28;20058;-48
2022/04/16 21:03:19;;;;;;;2.85;1.48;;;5.70;83.00;;;;;;5106919;28;20039;-51
2022/04/16 21:05:45;;;;;;;3.88;1.95;;;5.70;83.80;;;;;;5106739;28;20156;-50
2022/04/16 21:08:11;;;;;;;3.45;1.52;;;5.70;85.30;;;;;;5107092;28;20113;-47
2022/04/16 21:10:37;;;;;;;3.55;1.55;;;5.60;85.10;;;;;;5106814;28;20527;-48
2022/04/16 21:13:04;;;;;;;5.03;1.70;;;5.50;84.40;;;;;;5107038;28;20051;-51
2022/04/16 21:15:29;;;;;;;3.67;2.05;;;5.40;84.40;;;;;;5107046;28;20044;-50
2022/04/16 21:17:56;;;;;;;3.35;1.60;;;5.30;85.10;;;;;;5106897;28;20047;-47
2022/04/16 21:20:25;;;;;;;5.82;2.17;;;5.30;84.90;;;;;;5106621;28;20047;-47
2022/04/16 21:22:53;;;;;;;4.43;2.10;;;5.20;85.30;;;;;;5106586;28;20484;-50
2022/04/16 21:25:23;;;;;;;6.28;1.80;;;5.20;85.80;;;;;;5107278;28;20036;-48
2022/04/16 21:27:49;;;;;;;4.13;2.55;;;5.30;86.30;;;;;;5106726;28;20224;-49
2022/04/16 21:30:17;;;;;;;5.72;2.55;;;5.30;86.40;;;;;;5106381;28;20047;-50
2022/04/16 21:32:43;;;;;;;5.15;2.30;;;5.30;86.60;;;;;;5106606;28;20078;-50
2022/04/16 21:35:09;;;;;;;5.22;2.45;;;5.30;86.70;;;;;;5106651;28;20039;-50
2022/04/16 21:37:35;;;;;;;8.63;2.80;;;5.30;87.30;;;;;;5104721;28;20043;-50
2022/04/16 21:40:00;;;;;;;4.65;2.60;;;4.80;87.30;;;;;;5105279;28;20043;-50
2022/04/16 21:42:26;;;;;;;5.35;2.78;;;5.20;87.80;;;;;;5106799;28;20045;-47
2022/04/16 21:44:52;;;;;;;5.07;2.63;;;5.10;87.90;;;;;;5106598;28;20102;-48
2022/04/16 21:47:17;;;;;;;7.43;2.67;;;5.10;88.20;;;;;;5106299;28;20603;-50
2022/04/16 21:49:43;;;;;;;5.18;2.90;;;5.10;88.70;;;;;;5106214;28;20043;-48
2022/04/16 21:52:09;;;;;;;6.05;3.08;;;5.00;89.00;;;;;;5106743;28;20039;-47
2022/04/16 21:54:35;;;;;;;4.78;3.08;;;4.90;89.60;;;;;;5106323;28;20036;-51
2022/04/16 21:57:01;;;;;;;4.38;2.80;;;4.80;89.80;;;;;;5107267;28;20086;-50
2022/04/16 21:59:26;;;;;;;5.13;3.30;;;5.00;90.10;;;;;;5107424;28;20089;-46
2022/04/16 22:01:53;;;;;;;4.57;3.15;;;4.70;90.20;;;;;;5107045;28;20040;-47
2022/04/16 22:04:20;;;;;;;5.22;3.00;;;5.10;90.30;;;;;;5108733;28;20394;-48
2022/04/16 22:06:46;;;;;;;8.52;3.38;;;4.60;90.20;;;;;;5110848;28;20454;-50
2022/04/16 22:09:13;;;;;;;7.72;3.28;;;4.60;90.20;;;;;;5111136;28;20115;-49
2022/04/16 22:11:39;;;;;;;6.13;3.47;;;4.50;90.20;;;;;;5111025;28;20044;-50
2022/04/16 22:14:05;;;;;;;8.25;3.92;;;4.50;90.40;;;;;;5111199;27;20139;-50
2022/04/16 22:16:32;;;;;;;5.53;3.17;;;4.40;90.60;;;;;;5110113;28;20135;-51
2022/04/16 22:18:58;;;;;;;4.85;3.25;;;4.30;90.70;;;;;;5110825;28;20039;-47
2022/04/16 22:21:23;;;;;;;6.80;3.40;;;4.20;90.80;;;;;;5111248;28;20134;-47
2022/04/16 22:23:49;;;;;;;6.50;3.80;;;4.10;91.10;;;;;;5110702;28;20147;-49
2022/04/16 22:26:15;;;;;;;7.68;3.65;;;4.00;91.20;;;;;;5110888;28;20055;-48